• Join FlightAware (Why Join?)
  • Login
  • US Flag 
08:38AM EDT


 

Airport Tracker/Info


-or-


 

Live Flight TrackerFlight Track Log ✈ N588AC ✈ 13-Jul-2014 ✈ KPDK - KBCB

Flight Track Log - Related Links

Times and Time Zones

All times are in EDT time to prevent confusion due to time zone crossing. See the N588AC flight status page for this flight to view local times or setup timezone preferences in your user account.

Time Position Orientation Groundspeed Altitude Reporting Facility
EDT Latitude Longitude Course Direction KTS MPH feet Rate Location/Type
02:33PM 33.9167 -84.2500 54° Northeast 171 197 3,000  Level Atlanta TRACON
02:34PM 33.9500 -84.1833 59° Northeast 229 264 4,500 1,920 Climbing Atlanta TRACON
02:35PM 33.9667 -84.1167 73° East 238 274 6,700 1,800 Climbing Atlanta TRACON
02:36PM 33.9667 -84.0333 90° East 264 304 8,000 600 Climbing Atlanta TRACON
02:37PM 33.9500 -83.9333 101° East 296 341 8,000 720 Level Atlanta TRACON
02:38PM 33.9275 -83.7936 101° East 300 345 10,000 1,380 Climbing Atlanta Center
02:39PM 33.9034 -83.7389 54° Northeast  Level FlightAware Approximate
02:39PM 33.9525 -83.7006 72° East 292 336 11,800  Level Atlanta Center
02:40PM 34.0064 -83.6178 52° Northeast 282 325 13,700 1,800 Climbing Atlanta Center
02:41PM 34.0542 -83.5397 54° Northeast 282 325 15,500 1,800 Climbing Atlanta Center
02:42PM 34.1017 -83.4617 54° Northeast 287 330 17,400 1,740 Climbing Atlanta Center
02:43PM 34.1494 -83.3936 50° Northeast 275 316 19,000 1,680 Climbing Atlanta Center
02:44PM 34.1908 -83.3181 56° Northeast 270 311 20,800 1,800 Climbing Atlanta Center
02:45PM 34.2322 -83.2497 54° Northeast 270 311 22,700 1,500 Climbing Atlanta Center
02:46PM 34.2756 -83.1792 53° Northeast 264 304 23,900 840 Climbing Atlanta Center
02:47PM 34.3228 -83.1031 53° Northeast 269 310 24,400 480 Climbing Atlanta Center
02:48PM 34.3744 -83.0219 52° Northeast 281 323 24,900 300 Climbing Atlanta Center
02:49PM 34.4278 -82.9333 54° Northeast 307 353 25,000  Climbing Atlanta Center
02:50PM 34.4875 -82.8392 52° Northeast 331 381 25,000  Level Atlanta Center
02:51PM 34.5469 -82.7400 54° Northeast 344 396 25,000  Level Atlanta Center
02:52PM 34.6108 -82.6431 51° Northeast 359 413 25,000  Level Atlanta Center
02:53PM 34.6719 -82.5336 56° Northeast 359 413 25,000 120 Level Atlanta Center
02:54PM 34.7314 -82.4339 54° Northeast 364 419 25,300 420 Climbing Atlanta Center
02:55PM 34.7883 -82.3392 54° Northeast 364 419 25,900 600 Climbing Atlanta Center
02:56PM 34.8475 -82.2367 55° Northeast 359 413 26,500 540 Climbing Atlanta Center
02:57PM 34.9067 -82.1442 52° Northeast 359 413 27,000 240 Climbing Atlanta Center
02:58PM 34.9614 -82.0542 53° Northeast 359 413 27,000  Level Atlanta Center
02:59PM 35.0203 -81.9514 55° Northeast 364 419 27,000  Level Atlanta Center
03:00PM 35.1047 -81.8833 33° Northeast 353 406 27,000  Level Atlanta Center
03:01PM 35.1914 -81.8253 29° Northeast 353 406 27,000  Level Atlanta Center
03:02PM 35.2778 -81.7644 30° Northeast 353 406 27,000  Level Atlanta Center
03:03PM 35.3664 -81.7058 28° Northeast 353 406 27,000  Level Atlanta Center
03:04PM 35.4528 -81.6447 30° Northeast 353 406 27,000  Level Atlanta Center
03:05PM 35.5436 -81.5833 29° Northeast 353 406 27,000  Level Atlanta Center
03:06PM 35.6422 -81.5192 28° Northeast 353 406 27,000  Level Atlanta Center
03:07PM 35.7328 -81.4575 29° Northeast 358 412 27,000  Level Atlanta Center
03:08PM 35.8211 -81.3906 32° Northeast 363 418 27,000 -240 Level Atlanta Center
03:09PM 35.9136 -81.3261 29° Northeast 368 423 26,600 -480 Descending Atlanta Center
03:10PM 36.0061 -81.2639 29° Northeast 368 423 26,100 -540 Descending Atlanta Center
03:11PM 36.0983 -81.1967 30° Northeast 373 429 25,600 -540 Descending Atlanta Center
03:12PM 36.1908 -81.1317 30° Northeast 373 429 25,100 -300 Descending Atlanta Center
03:13PM 36.2850 -81.0664 29° Northeast 373 429 25,000 -240 Descending Atlanta Center
03:14PM 36.3753 -81.0011 30° Northeast 373 429 24,700 -300 Descending Atlanta Center
03:15PM 36.4675 -80.9356 30° Northeast 373 429 24,400 -600 Descending Atlanta Center
03:16PM 36.5594 -80.8675 31° Northeast 373 429 23,600 -1,200 Descending Atlanta Center
03:17PM 36.6558 -80.8017 29° Northeast 373 429 22,000 -1,860 Descending Atlanta Center
03:18PM 36.7481 -80.7383 29° Northeast 373 429 19,900 -1,500 Descending Atlanta Center
03:19PM 36.8194 -80.6833 32° Northeast 360 414 19,000 -1,680 Descending Atlanta Center
03:20PM 36.8992 -80.6281 29° Northeast 334 384 16,600 -3,300 Descending Atlanta Center
03:22PM 36.9750 -80.5583 39° Northeast  Level FlightAware Approximate
03:23PM 37.0942 -80.5056 39° Northeast 301 346 8,200  Level Washington Center